ADDS TAF Data INFO
IDs: Format: Raw Decoded Include METARs

Data at: 1310 UTC 21 May 2018

KMAF 211253Z 09006KT 5SM BR OVC005 17/16 A3009 RMK AO2 SLP150 T01720161

KMAF 211143Z 2112/2212 09009KT P6SM OVC004
  FM211600 11011KT P6SM OVC015
  FM211800 12011KT P6SM SCT040 SCT250
  FM212200 13016G24KT P6SM SCT050 BKN250